Terminal Aerodrome Forecast
Issued by NWS

Home | Current Version | Previous Version | Text Only | Print | Product List | Glossary On
Versions: 1 2 3 4 5 6 7 8 9 10 11 12 13 14 15 16
000
FTUS42 KJAX 262002 AAA
TAFCRG
TAF AMD
KCRG 262002Z 2620/2718 13010KT P6SM VCTS BKN040CB
      TEMPO 2620/2622 VRB10G20KT 4SM SHRA OVC040
     FM270100 21003KT P6SM BKN250
     FM271400 23008KT P6SM SCT030=

USA.gov is the U.S. government's official web portal to all federal, state and local government web resources and services.